sensor_id;sensor_type;location;lat;lon;timestamp;P1;durP1;ratioP1;P2;durP2;ratioP2
28834;SDS011;15969;51.536;11.884;2023-05-10T00:00:20;6.43;;;4.20;;
28834;SDS011;15969;51.536;11.884;2023-05-10T00:02:47;5.23;;;4.73;;
28834;SDS011;15969;51.536;11.884;2023-05-10T00:05:13;5.00;;;4.60;;
28834;SDS011;15969;51.536;11.884;2023-05-10T00:07:39;5.33;;;4.80;;
28834;SDS011;15969;51.536;11.884;2023-05-10T00:10:05;5.90;;;4.13;;
28834;SDS011;15969;51.536;11.884;2023-05-10T00:12:31;5.27;;;4.77;;
28834;SDS011;15969;51.536;11.884;2023-05-10T00:14:57;5.43;;;4.60;;
28834;SDS011;15969;51.536;11.884;2023-05-10T00:17:22;5.23;;;4.73;;
28834;SDS011;15969;51.536;11.884;2023-05-10T00:19:48;6.40;;;4.80;;
28834;SDS011;15969;51.536;11.884;2023-05-10T00:22:13;5.10;;;4.67;;
28834;SDS011;15969;51.536;11.884;2023-05-10T00:24:39;7.07;;;4.40;;
28834;SDS011;15969;51.536;11.884;2023-05-10T00:27:05;8.07;;;5.20;;
28834;SDS011;15969;51.536;11.884;2023-05-10T00:29:30;5.27;;;4.63;;
28834;SDS011;15969;51.536;11.884;2023-05-10T00:31:56;5.63;;;4.70;;
28834;SDS011;15969;51.536;11.884;2023-05-10T00:34:22;5.63;;;4.73;;
28834;SDS011;15969;51.536;11.884;2023-05-10T00:36:48;5.83;;;4.50;;
28834;SDS011;15969;51.536;11.884;2023-05-10T00:39:13;6.20;;;4.33;;
28834;SDS011;15969;51.536;11.884;2023-05-10T00:41:39;5.67;;;4.30;;
28834;SDS011;15969;51.536;11.884;2023-05-10T00:44:05;4.50;;;4.10;;
28834;SDS011;15969;51.536;11.884;2023-05-10T00:46:30;5.93;;;4.70;;
28834;SDS011;15969;51.536;11.884;2023-05-10T00:48:56;8.23;;;5.27;;
28834;SDS011;15969;51.536;11.884;2023-05-10T00:51:22;4.97;;;4.57;;
28834;SDS011;15969;51.536;11.884;2023-05-10T00:53:48;5.10;;;4.70;;
28834;SDS011;15969;51.536;11.884;2023-05-10T00:56:15;5.13;;;4.63;;
28834;SDS011;15969;51.536;11.884;2023-05-10T00:58:41;5.70;;;5.20;;
28834;SDS011;15969;51.536;11.884;2023-05-10T01:01:08;5.00;;;4.60;;
28834;SDS011;15969;51.536;11.884;2023-05-10T01:03:34;5.10;;;4.70;;
28834;SDS011;15969;51.536;11.884;2023-05-10T01:06:01;5.73;;;4.90;;
28834;SDS011;15969;51.536;11.884;2023-05-10T01:08:26;8.33;;;4.60;;
28834;SDS011;15969;51.536;11.884;2023-05-10T01:10:53;7.80;;;5.27;;
28834;SDS011;15969;51.536;11.884;2023-05-10T01:13:36;5.00;;;4.50;;
28834;SDS011;15969;51.536;11.884;2023-05-10T01:16:04;5.50;;;5.00;;
28834;SDS011;15969;51.536;11.884;2023-05-10T01:18:33;6.53;;;4.67;;
28834;SDS011;15969;51.536;11.884;2023-05-10T01:32:43;5.67;;;4.80;;
28834;SDS011;15969;51.536;11.884;2023-05-10T01:35:51;6.00;;;5.40;;
28834;SDS011;15969;51.536;11.884;2023-05-10T01:41:41;6.83;;;5.13;;
28834;SDS011;15969;51.536;11.884;2023-05-10T01:44:23;6.93;;;4.80;;
28834;SDS011;15969;51.536;11.884;2023-05-10T01:47:04;5.70;;;5.00;;
28834;SDS011;15969;51.536;11.884;2023-05-10T01:49:43;6.93;;;5.07;;
28834;SDS011;15969;51.536;11.884;2023-05-10T01:52:15;5.67;;;5.17;;
28834;SDS011;15969;51.536;11.884;2023-05-10T01:54:48;7.13;;;5.47;;
28834;SDS011;15969;51.536;11.884;2023-05-10T01:57:20;7.63;;;5.67;;
28834;SDS011;15969;51.536;11.884;2023-05-10T01:59:51;7.47;;;5.33;;
28834;SDS011;15969;51.536;11.884;2023-05-10T02:02:19;6.07;;;5.47;;
28834;SDS011;15969;51.536;11.884;2023-05-10T02:04:46;7.00;;;5.53;;
28834;SDS011;15969;51.536;11.884;2023-05-10T02:07:14;6.17;;;5.50;;
28834;SDS011;15969;51.536;11.884;2023-05-10T02:09:41;5.90;;;5.37;;
28834;SDS011;15969;51.536;11.884;2023-05-10T02:12:12;8.43;;;5.83;;
28834;SDS011;15969;51.536;11.884;2023-05-10T02:14:39;6.50;;;5.90;;
28834;SDS011;15969;51.536;11.884;2023-05-10T02:17:07;5.83;;;5.33;;
28834;SDS011;15969;51.536;11.884;2023-05-10T02:19:33;6.53;;;5.30;;
28834;SDS011;15969;51.536;11.884;2023-05-10T02:22:03;8.57;;;5.97;;
28834;SDS011;15969;51.536;11.884;2023-05-10T02:24:30;6.20;;;5.60;;
28834;SDS011;15969;51.536;11.884;2023-05-10T02:26:57;6.17;;;5.57;;
28834;SDS011;15969;51.536;11.884;2023-05-10T02:29:24;6.13;;;5.43;;
28834;SDS011;15969;51.536;11.884;2023-05-10T02:31:52;5.90;;;5.30;;
28834;SDS011;15969;51.536;11.884;2023-05-10T02:34:19;7.70;;;5.30;;
28834;SDS011;15969;51.536;11.884;2023-05-10T02:36:47;7.03;;;5.37;;
28834;SDS011;15969;51.536;11.884;2023-05-10T02:39:14;6.33;;;5.70;;
28834;SDS011;15969;51.536;11.884;2023-05-10T02:41:40;6.30;;;5.70;;
28834;SDS011;15969;51.536;11.884;2023-05-10T02:44:07;7.47;;;5.73;;
28834;SDS011;15969;51.536;11.884;2023-05-10T02:46:34;8.70;;;5.43;;
28834;SDS011;15969;51.536;11.884;2023-05-10T02:49:01;5.50;;;5.00;;
28834;SDS011;15969;51.536;11.884;2023-05-10T02:51:30;6.00;;;5.33;;
28834;SDS011;15969;51.536;11.884;2023-05-10T02:53:59;7.23;;;5.70;;
28834;SDS011;15969;51.536;11.884;2023-05-10T02:56:33;5.77;;;5.20;;
28834;SDS011;15969;51.536;11.884;2023-05-10T02:59:01;7.07;;;5.27;;
28834;SDS011;15969;51.536;11.884;2023-05-10T03:01:26;6.80;;;6.10;;
28834;SDS011;15969;51.536;11.884;2023-05-10T03:03:52;7.13;;;5.23;;
28834;SDS011;15969;51.536;11.884;2023-05-10T03:06:18;6.47;;;5.87;;
28834;SDS011;15969;51.536;11.884;2023-05-10T03:08:44;6.47;;;5.87;;
28834;SDS011;15969;51.536;11.884;2023-05-10T03:14:06;7.07;;;5.60;;
28834;SDS011;15969;51.536;11.884;2023-05-10T03:16:46;6.47;;;5.63;;
28834;SDS011;15969;51.536;11.884;2023-05-10T03:19:30;6.53;;;5.53;;
28834;SDS011;15969;51.536;11.884;2023-05-10T03:22:03;5.80;;;5.20;;
28834;SDS011;15969;51.536;11.884;2023-05-10T03:24:34;6.53;;;5.40;;
28834;SDS011;15969;51.536;11.884;2023-05-10T03:27:01;7.47;;;5.57;;
28834;SDS011;15969;51.536;11.884;2023-05-10T03:29:29;5.60;;;4.80;;
28834;SDS011;15969;51.536;11.884;2023-05-10T03:31:56;7.83;;;4.80;;
28834;SDS011;15969;51.536;11.884;2023-05-10T03:34:24;6.07;;;4.77;;
28834;SDS011;15969;51.536;11.884;2023-05-10T03:36:51;5.93;;;5.43;;
28834;SDS011;15969;51.536;11.884;2023-05-10T03:39:19;6.10;;;5.50;;
28834;SDS011;15969;51.536;11.884;2023-05-10T03:41:46;6.50;;;5.83;;
28834;SDS011;15969;51.536;11.884;2023-05-10T03:44:11;5.83;;;5.30;;
28834;SDS011;15969;51.536;11.884;2023-05-10T03:46:37;6.60;;;5.40;;
28834;SDS011;15969;51.536;11.884;2023-05-10T03:49:03;6.30;;;5.70;;
28834;SDS011;15969;51.536;11.884;2023-05-10T03:51:28;6.70;;;6.03;;
28834;SDS011;15969;51.536;11.884;2023-05-10T03:53:56;8.03;;;5.47;;
28834;SDS011;15969;51.536;11.884;2023-05-10T03:56:21;7.43;;;6.30;;
28834;SDS011;15969;51.536;11.884;2023-05-10T03:58:47;8.63;;;7.83;;
28834;SDS011;15969;51.536;11.884;2023-05-10T04:01:13;6.50;;;5.80;;
28834;SDS011;15969;51.536;11.884;2023-05-10T04:03:38;6.73;;;6.03;;
28834;SDS011;15969;51.536;11.884;2023-05-10T04:06:04;8.43;;;6.53;;
28834;SDS011;15969;51.536;11.884;2023-05-10T04:08:30;6.33;;;5.77;;
28834;SDS011;15969;51.536;11.884;2023-05-10T04:11:14;7.83;;;6.20;;
28834;SDS011;15969;51.536;11.884;2023-05-10T04:13:40;7.90;;;5.70;;
28834;SDS011;15969;51.536;11.884;2023-05-10T04:16:06;7.07;;;6.37;;
28834;SDS011;15969;51.536;11.884;2023-05-10T04:18:32;7.93;;;6.20;;
28834;SDS011;15969;51.536;11.884;2023-05-10T04:20:57;6.20;;;5.63;;
28834;SDS011;15969;51.536;11.884;2023-05-10T04:23:23;5.87;;;5.37;;
28834;SDS011;15969;51.536;11.884;2023-05-10T04:25:49;6.37;;;5.77;;
28834;SDS011;15969;51.536;11.884;2023-05-10T04:28:14;7.20;;;5.87;;
28834;SDS011;15969;51.536;11.884;2023-05-10T04:30:40;8.20;;;5.77;;
28834;SDS011;15969;51.536;11.884;2023-05-10T04:33:06;7.10;;;6.40;;
28834;SDS011;15969;51.536;11.884;2023-05-10T04:35:32;6.80;;;5.27;;
28834;SDS011;15969;51.536;11.884;2023-05-10T04:37:57;6.17;;;5.60;;
28834;SDS011;15969;51.536;11.884;2023-05-10T04:40:23;7.40;;;6.13;;
28834;SDS011;15969;51.536;11.884;2023-05-10T04:42:49;6.37;;;5.77;;
28834;SDS011;15969;51.536;11.884;2023-05-10T04:45:14;7.97;;;5.33;;
28834;SDS011;15969;51.536;11.884;2023-05-10T04:47:40;9.70;;;5.20;;
28834;SDS011;15969;51.536;11.884;2023-05-10T04:50:06;8.00;;;5.60;;
28834;SDS011;15969;51.536;11.884;2023-05-10T04:52:33;6.83;;;5.50;;
28834;SDS011;15969;51.536;11.884;2023-05-10T04:54:58;7.63;;;5.67;;
28834;SDS011;15969;51.536;11.884;2023-05-10T04:57:24;7.07;;;6.37;;
28834;SDS011;15969;51.536;11.884;2023-05-10T04:59:50;8.67;;;5.37;;
28834;SDS011;15969;51.536;11.884;2023-05-10T05:02:16;9.40;;;5.80;;
28834;SDS011;15969;51.536;11.884;2023-05-10T05:04:41;6.87;;;5.70;;
28834;SDS011;15969;51.536;11.884;2023-05-10T05:07:07;8.20;;;5.73;;
28834;SDS011;15969;51.536;11.884;2023-05-10T05:09:33;9.00;;;5.83;;
28834;SDS011;15969;51.536;11.884;2023-05-10T05:11:58;6.23;;;5.63;;
28834;SDS011;15969;51.536;11.884;2023-05-10T05:14:24;7.07;;;6.10;;
28834;SDS011;15969;51.536;11.884;2023-05-10T05:16:53;5.73;;;5.13;;
28834;SDS011;15969;51.536;11.884;2023-05-10T05:19:19;7.13;;;5.70;;
28834;SDS011;15969;51.536;11.884;2023-05-10T05:21:45;5.60;;;5.10;;
28834;SDS011;15969;51.536;11.884;2023-05-10T05:24:10;8.93;;;5.60;;
28834;SDS011;15969;51.536;11.884;2023-05-10T05:26:37;6.87;;;5.50;;
28834;SDS011;15969;51.536;11.884;2023-05-10T05:29:03;5.50;;;5.00;;
28834;SDS011;15969;51.536;11.884;2023-05-10T05:31:29;6.70;;;5.20;;
28834;SDS011;15969;51.536;11.884;2023-05-10T05:33:55;5.90;;;5.17;;
28834;SDS011;15969;51.536;11.884;2023-05-10T05:36:21;6.37;;;5.10;;
28834;SDS011;15969;51.536;11.884;2023-05-10T05:38:47;6.00;;;5.20;;
28834;SDS011;15969;51.536;11.884;2023-05-10T05:41:12;5.17;;;4.67;;
28834;SDS011;15969;51.536;11.884;2023-05-10T05:43:38;6.17;;;5.13;;
28834;SDS011;15969;51.536;11.884;2023-05-10T05:46:04;6.07;;;4.60;;
28834;SDS011;15969;51.536;11.884;2023-05-10T05:48:30;7.70;;;5.27;;
28834;SDS011;15969;51.536;11.884;2023-05-10T05:50:56;7.03;;;5.13;;
28834;SDS011;15969;51.536;11.884;2023-05-10T05:53:21;5.17;;;4.50;;
28834;SDS011;15969;51.536;11.884;2023-05-10T05:55:55;5.47;;;4.67;;
28834;SDS011;15969;51.536;11.884;2023-05-10T05:58:22;7.90;;;4.77;;
28834;SDS011;15969;51.536;11.884;2023-05-10T06:00:49;7.03;;;5.00;;
28834;SDS011;15969;51.536;11.884;2023-05-10T06:03:16;8.40;;;4.67;;
28834;SDS011;15969;51.536;11.884;2023-05-10T06:05:43;5.30;;;4.80;;
28834;SDS011;15969;51.536;11.884;2023-05-10T06:08:09;5.57;;;4.33;;
28834;SDS011;15969;51.536;11.884;2023-05-10T06:10:35;10.63;;;4.83;;
28834;SDS011;15969;51.536;11.884;2023-05-10T06:13:01;5.63;;;4.80;;
28834;SDS011;15969;51.536;11.884;2023-05-10T06:15:27;9.40;;;4.93;;
28834;SDS011;15969;51.536;11.884;2023-05-10T06:17:53;6.97;;;4.40;;
28834;SDS011;15969;51.536;11.884;2023-05-10T06:20:18;6.80;;;4.57;;
28834;SDS011;15969;51.536;11.884;2023-05-10T06:22:44;6.27;;;4.50;;
28834;SDS011;15969;51.536;11.884;2023-05-10T06:25:10;5.10;;;4.37;;
28834;SDS011;15969;51.536;11.884;2023-05-10T06:27:36;6.50;;;4.50;;
28834;SDS011;15969;51.536;11.884;2023-05-10T06:30:02;5.17;;;3.83;;
28834;SDS011;15969;51.536;11.884;2023-05-10T06:32:28;7.53;;;4.53;;
28834;SDS011;15969;51.536;11.884;2023-05-10T06:34:54;6.43;;;4.60;;
28834;SDS011;15969;51.536;11.884;2023-05-10T06:37:20;4.77;;;4.23;;
28834;SDS011;15969;51.536;11.884;2023-05-10T06:39:45;5.00;;;4.50;;
28834;SDS011;15969;51.536;11.884;2023-05-10T06:42:11;6.70;;;4.70;;
28834;SDS011;15969;51.536;11.884;2023-05-10T06:44:37;4.23;;;3.80;;
28834;SDS011;15969;51.536;11.884;2023-05-10T06:47:02;9.33;;;4.23;;
28834;SDS011;15969;51.536;11.884;2023-05-10T06:49:28;5.57;;;4.27;;
28834;SDS011;15969;51.536;11.884;2023-05-10T06:51:55;5.40;;;4.43;;
28834;SDS011;15969;51.536;11.884;2023-05-10T06:54:21;4.83;;;4.43;;
28834;SDS011;15969;51.536;11.884;2023-05-10T06:56:46;7.10;;;4.00;;
28834;SDS011;15969;51.536;11.884;2023-05-10T06:59:12;5.40;;;4.47;;
28834;SDS011;15969;51.536;11.884;2023-05-10T07:01:38;4.63;;;3.90;;
28834;SDS011;15969;51.536;11.884;2023-05-10T07:04:04;6.33;;;4.93;;
28834;SDS011;15969;51.536;11.884;2023-05-10T07:06:30;7.97;;;4.33;;
28834;SDS011;15969;51.536;11.884;2023-05-10T07:08:55;5.60;;;4.30;;
28834;SDS011;15969;51.536;11.884;2023-05-10T07:11:22;9.07;;;4.50;;
28834;SDS011;15969;51.536;11.884;2023-05-10T07:13:47;6.83;;;4.47;;
28834;SDS011;15969;51.536;11.884;2023-05-10T07:16:13;6.70;;;4.43;;
28834;SDS011;15969;51.536;11.884;2023-05-10T07:18:38;5.27;;;4.73;;
28834;SDS011;15969;51.536;11.884;2023-05-10T07:21:04;5.13;;;4.63;;
28834;SDS011;15969;51.536;11.884;2023-05-10T07:23:30;7.37;;;5.10;;
28834;SDS011;15969;51.536;11.884;2023-05-10T07:25:56;7.37;;;5.60;;
28834;SDS011;15969;51.536;11.884;2023-05-10T07:28:22;6.20;;;5.07;;
28834;SDS011;15969;51.536;11.884;2023-05-10T07:30:51;7.73;;;4.50;;
28834;SDS011;15969;51.536;11.884;2023-05-10T07:33:17;10.03;;;5.07;;
28834;SDS011;15969;51.536;11.884;2023-05-10T07:35:42;5.60;;;5.07;;
28834;SDS011;15969;51.536;11.884;2023-05-10T07:38:08;6.97;;;5.03;;
28834;SDS011;15969;51.536;11.884;2023-05-10T07:40:35;6.00;;;5.10;;
28834;SDS011;15969;51.536;11.884;2023-05-10T07:43:01;9.63;;;5.37;;
28834;SDS011;15969;51.536;11.884;2023-05-10T07:45:27;11.83;;;6.00;;
28834;SDS011;15969;51.536;11.884;2023-05-10T07:47:53;6.57;;;5.37;;
28834;SDS011;15969;51.536;11.884;2023-05-10T07:50:19;6.33;;;5.70;;
28834;SDS011;15969;51.536;11.884;2023-05-10T07:52:46;5.40;;;4.90;;
28834;SDS011;15969;51.536;11.884;2023-05-10T07:55:12;6.70;;;5.83;;
28834;SDS011;15969;51.536;11.884;2023-05-10T07:57:38;8.33;;;5.90;;
28834;SDS011;15969;51.536;11.884;2023-05-10T08:00:04;5.80;;;5.30;;
28834;SDS011;15969;51.536;11.884;2023-05-10T08:02:31;9.13;;;5.30;;
28834;SDS011;15969;51.536;11.884;2023-05-10T08:04:59;8.10;;;5.57;;
28834;SDS011;15969;51.536;11.884;2023-05-10T08:07:25;6.53;;;5.93;;
28834;SDS011;15969;51.536;11.884;2023-05-10T08:09:50;7.07;;;6.37;;
28834;SDS011;15969;51.536;11.884;2023-05-10T08:12:16;7.97;;;6.67;;
28834;SDS011;15969;51.536;11.884;2023-05-10T08:14:42;7.73;;;5.57;;
28834;SDS011;15969;51.536;11.884;2023-05-10T08:17:08;8.50;;;6.80;;
28834;SDS011;15969;51.536;11.884;2023-05-10T08:19:33;9.50;;;7.00;;
28834;SDS011;15969;51.536;11.884;2023-05-10T08:21:59;7.07;;;6.27;;
28834;SDS011;15969;51.536;11.884;2023-05-10T08:24:25;9.00;;;6.67;;
28834;SDS011;15969;51.536;11.884;2023-05-10T08:26:50;7.60;;;6.90;;
28834;SDS011;15969;51.536;11.884;2023-05-10T08:29:16;9.23;;;7.07;;
28834;SDS011;15969;51.536;11.884;2023-05-10T08:31:42;9.20;;;7.30;;
28834;SDS011;15969;51.536;11.884;2023-05-10T08:34:07;8.10;;;7.23;;
28834;SDS011;15969;51.536;11.884;2023-05-10T08:36:33;7.93;;;7.13;;
28834;SDS011;15969;51.536;11.884;2023-05-10T08:38:59;8.07;;;7.27;;
28834;SDS011;15969;51.536;11.884;2023-05-10T08:41:25;7.37;;;6.67;;
28834;SDS011;15969;51.536;11.884;2023-05-10T08:43:51;7.57;;;6.83;;
28834;SDS011;15969;51.536;11.884;2023-05-10T08:46:19;7.73;;;7.07;;
28834;SDS011;15969;51.536;11.884;2023-05-10T08:48:47;8.17;;;7.47;;
28834;SDS011;15969;51.536;11.884;2023-05-10T08:51:19;7.80;;;7.10;;
28834;SDS011;15969;51.536;11.884;2023-05-10T08:53:50;8.37;;;7.50;;
28834;SDS011;15969;51.536;11.884;2023-05-10T08:56:16;9.43;;;8.43;;
28834;SDS011;15969;51.536;11.884;2023-05-10T08:58:42;8.43;;;7.53;;
28834;SDS011;15969;51.536;11.884;2023-05-10T09:01:08;8.73;;;7.93;;
28834;SDS011;15969;51.536;11.884;2023-05-10T09:03:37;11.90;;;8.23;;
28834;SDS011;15969;51.536;11.884;2023-05-10T09:06:04;9.40;;;8.37;;
28834;SDS011;15969;51.536;11.884;2023-05-10T09:08:30;8.97;;;8.07;;
28834;SDS011;15969;51.536;11.884;2023-05-10T09:10:56;16.57;;;7.73;;
28834;SDS011;15969;51.536;11.884;2023-05-10T09:13:22;8.80;;;8.00;;
28834;SDS011;15969;51.536;11.884;2023-05-10T09:15:49;8.43;;;7.63;;
28834;SDS011;15969;51.536;11.884;2023-05-10T09:18:16;8.93;;;7.80;;
28834;SDS011;15969;51.536;11.884;2023-05-10T09:20:41;8.80;;;7.90;;
28834;SDS011;15969;51.536;11.884;2023-05-10T09:23:07;10.60;;;8.23;;
28834;SDS011;15969;51.536;11.884;2023-05-10T09:25:33;12.33;;;8.80;;
28834;SDS011;15969;51.536;11.884;2023-05-10T09:27:59;8.67;;;7.87;;
28834;SDS011;15969;51.536;11.884;2023-05-10T09:30:29;8.37;;;7.57;;
28834;SDS011;15969;51.536;11.884;2023-05-10T09:32:56;10.27;;;8.03;;
28834;SDS011;15969;51.536;11.884;2023-05-10T09:35:25;9.30;;;8.00;;
28834;SDS011;15969;51.536;11.884;2023-05-10T09:37:54;9.07;;;8.17;;
28834;SDS011;15969;51.536;11.884;2023-05-10T09:40:26;8.90;;;7.73;;
28834;SDS011;15969;51.536;11.884;2023-05-10T09:43:03;8.97;;;8.07;;
28834;SDS011;15969;51.536;11.884;2023-05-10T09:45:33;10.07;;;8.10;;
28834;SDS011;15969;51.536;11.884;2023-05-10T09:48:00;10.13;;;8.13;;
28834;SDS011;15969;51.536;11.884;2023-05-10T09:50:27;8.97;;;8.17;;
28834;SDS011;15969;51.536;11.884;2023-05-10T09:55:25;3.97;;;3.60;;
28834;SDS011;15969;51.536;11.884;2023-05-10T09:58:03;3.40;;;3.10;;
28834;SDS011;15969;51.536;11.884;2023-05-10T10:00:35;4.17;;;3.80;;
28834;SDS011;15969;51.536;11.884;2023-05-10T10:03:07;4.03;;;3.73;;
28834;SDS011;15969;51.536;11.884;2023-05-10T10:05:47;4.60;;;4.20;;
28834;SDS011;15969;51.536;11.884;2023-05-10T10:08:14;5.07;;;4.47;;
28834;SDS011;15969;51.536;11.884;2023-05-10T10:10:40;3.80;;;3.50;;
28834;SDS011;15969;51.536;11.884;2023-05-10T10:13:06;3.63;;;3.33;;
28834;SDS011;15969;51.536;11.884;2023-05-10T10:15:33;3.53;;;2.80;;
28834;SDS011;15969;51.536;11.884;2023-05-10T10:17:59;2.60;;;2.40;;
28834;SDS011;15969;51.536;11.884;2023-05-10T10:20:26;3.33;;;2.40;;
28834;SDS011;15969;51.536;11.884;2023-05-10T10:22:53;3.43;;;2.00;;
28834;SDS011;15969;51.536;11.884;2023-05-10T10:25:18;2.53;;;2.23;;
28834;SDS011;15969;51.536;11.884;2023-05-10T10:36:15;3.10;;;2.47;;
28834;SDS011;15969;51.536;11.884;2023-05-10T10:49:42;4.27;;;3.53;;
28834;SDS011;15969;51.536;11.884;2023-05-10T10:55:02;3.80;;;2.67;;
28834;SDS011;15969;51.536;11.884;2023-05-10T10:57:28;4.53;;;2.60;;
28834;SDS011;15969;51.536;11.884;2023-05-10T11:02:46;4.80;;;3.83;;
28834;SDS011;15969;51.536;11.884;2023-05-10T11:05:23;7.37;;;5.87;;
28834;SDS011;15969;51.536;11.884;2023-05-10T11:07:56;10.27;;;8.90;;
28834;SDS011;15969;51.536;11.884;2023-05-10T11:10:24;3.43;;;3.13;;
28834;SDS011;15969;51.536;11.884;2023-05-10T11:13:51;2.70;;;2.30;;
28834;SDS011;15969;51.536;11.884;2023-05-10T11:15:54;4.40;;;4.00;;
28834;SDS011;15969;51.536;11.884;2023-05-10T11:18:29;3.67;;;3.37;;
28834;SDS011;15969;51.536;11.884;2023-05-10T11:20:59;4.07;;;3.67;;
28834;SDS011;15969;51.536;11.884;2023-05-10T11:26:11;2.40;;;2.20;;
28834;SDS011;15969;51.536;11.884;2023-05-10T11:28:41;2.80;;;2.60;;
28834;SDS011;15969;51.536;11.884;2023-05-10T11:31:14;4.30;;;2.87;;
28834;SDS011;15969;51.536;11.884;2023-05-10T11:33:45;2.53;;;2.23;;
28834;SDS011;15969;51.536;11.884;2023-05-10T11:36:20;2.07;;;1.87;;
28834;SDS011;15969;51.536;11.884;2023-05-10T11:38:48;5.00;;;2.50;;
28834;SDS011;15969;51.536;11.884;2023-05-10T11:41:15;2.00;;;1.90;;
28834;SDS011;15969;51.536;11.884;2023-05-10T11:43:44;2.27;;;2.17;;
28834;SDS011;15969;51.536;11.884;2023-05-10T11:46:13;2.70;;;2.20;;
28834;SDS011;15969;51.536;11.884;2023-05-10T11:48:40;2.57;;;2.37;;
28834;SDS011;15969;51.536;11.884;2023-05-10T11:51:06;2.10;;;1.90;;
28834;SDS011;15969;51.536;11.884;2023-05-10T11:53:33;2.40;;;2.20;;
28834;SDS011;15969;51.536;11.884;2023-05-10T11:56:02;3.43;;;2.30;;
28834;SDS011;15969;51.536;11.884;2023-05-10T11:58:32;2.47;;;2.20;;
28834;SDS011;15969;51.536;11.884;2023-05-10T12:00:58;3.53;;;2.70;;
28834;SDS011;15969;51.536;11.884;2023-05-10T12:03:25;2.87;;;2.67;;
28834;SDS011;15969;51.536;11.884;2023-05-10T12:05:52;2.63;;;2.43;;
28834;SDS011;15969;51.536;11.884;2023-05-10T12:08:21;2.17;;;2.00;;
28834;SDS011;15969;51.536;11.884;2023-05-10T12:10:48;2.40;;;2.20;;
28834;SDS011;15969;51.536;11.884;2023-05-10T12:13:14;1.40;;;1.30;;
28834;SDS011;15969;51.536;11.884;2023-05-10T12:15:40;1.60;;;1.50;;
28834;SDS011;15969;51.536;11.884;2023-05-10T12:18:11;1.97;;;1.67;;
28834;SDS011;15969;51.536;11.884;2023-05-10T12:20:38;1.40;;;1.30;;
28834;SDS011;15969;51.536;11.884;2023-05-10T12:23:05;2.80;;;2.37;;
28834;SDS011;15969;51.536;11.884;2023-05-10T12:25:34;2.00;;;1.90;;
28834;SDS011;15969;51.536;11.884;2023-05-10T12:28:05;1.50;;;1.40;;
28834;SDS011;15969;51.536;11.884;2023-05-10T12:30:34;2.10;;;2.00;;
28834;SDS011;15969;51.536;11.884;2023-05-10T12:33:01;2.17;;;1.97;;
28834;SDS011;15969;51.536;11.884;2023-05-10T12:35:32;1.97;;;1.83;;
28834;SDS011;15969;51.536;11.884;2023-05-10T12:38:22;2.17;;;1.97;;
28834;SDS011;15969;51.536;11.884;2023-05-10T12:41:01;2.07;;;1.87;;
28834;SDS011;15969;51.536;11.884;2023-05-10T12:43:29;1.70;;;1.60;;
28834;SDS011;15969;51.536;11.884;2023-05-10T12:45:55;2.40;;;2.20;;
28834;SDS011;15969;51.536;11.884;2023-05-10T12:48:21;1.90;;;1.80;;
28834;SDS011;15969;51.536;11.884;2023-05-10T12:50:47;2.80;;;2.57;;
28834;SDS011;15969;51.536;11.884;2023-05-10T12:53:15;2.63;;;2.00;;
28834;SDS011;15969;51.536;11.884;2023-05-10T12:55:42;2.40;;;2.20;;
28834;SDS011;15969;51.536;11.884;2023-05-10T12:58:08;2.10;;;1.97;;
28834;SDS011;15969;51.536;11.884;2023-05-10T13:00:34;2.80;;;2.60;;
28834;SDS011;15969;51.536;11.884;2023-05-10T13:03:00;2.50;;;2.30;;
28834;SDS011;15969;51.536;11.884;2023-05-10T13:05:25;2.93;;;2.73;;
28834;SDS011;15969;51.536;11.884;2023-05-10T13:07:51;2.47;;;2.30;;
28834;SDS011;15969;51.536;11.884;2023-05-10T13:10:17;2.17;;;2.07;;
28834;SDS011;15969;51.536;11.884;2023-05-10T13:12:42;1.80;;;1.70;;
28834;SDS011;15969;51.536;11.884;2023-05-10T13:15:09;2.20;;;2.00;;
28834;SDS011;15969;51.536;11.884;2023-05-10T13:17:35;2.13;;;1.93;;
28834;SDS011;15969;51.536;11.884;2023-05-10T13:20:00;2.73;;;2.53;;
28834;SDS011;15969;51.536;11.884;2023-05-10T13:22:26;2.00;;;1.90;;
28834;SDS011;15969;51.536;11.884;2023-05-10T13:24:52;2.33;;;2.13;;
28834;SDS011;15969;51.536;11.884;2023-05-10T13:27:17;2.33;;;2.13;;
28834;SDS011;15969;51.536;11.884;2023-05-10T13:29:43;2.37;;;2.00;;
28834;SDS011;15969;51.536;11.884;2023-05-10T13:32:09;3.00;;;2.20;;
28834;SDS011;15969;51.536;11.884;2023-05-10T13:34:34;2.63;;;2.13;;
28834;SDS011;15969;51.536;11.884;2023-05-10T13:37:00;3.63;;;2.13;;
28834;SDS011;15969;51.536;11.884;2023-05-10T13:39:26;2.33;;;2.13;;
28834;SDS011;15969;51.536;11.884;2023-05-10T13:41:52;2.10;;;1.90;;
28834;SDS011;15969;51.536;11.884;2023-05-10T13:44:17;1.80;;;1.70;;
28834;SDS011;15969;51.536;11.884;2023-05-10T13:46:45;2.77;;;2.10;;
28834;SDS011;15969;51.536;11.884;2023-05-10T13:49:11;1.83;;;1.70;;
28834;SDS011;15969;51.536;11.884;2023-05-10T13:51:37;2.20;;;2.00;;
28834;SDS011;15969;51.536;11.884;2023-05-10T13:54:02;2.00;;;1.90;;
28834;SDS011;15969;51.536;11.884;2023-05-10T13:56:28;1.97;;;1.77;;
28834;SDS011;15969;51.536;11.884;2023-05-10T13:58:54;1.90;;;1.70;;
28834;SDS011;15969;51.536;11.884;2023-05-10T14:01:21;1.90;;;1.80;;
28834;SDS011;15969;51.536;11.884;2023-05-10T14:03:47;1.80;;;1.70;;
28834;SDS011;15969;51.536;11.884;2023-05-10T14:06:13;2.87;;;1.90;;
28834;SDS011;15969;51.536;11.884;2023-05-10T14:08:38;4.77;;;2.10;;
28834;SDS011;15969;51.536;11.884;2023-05-10T14:11:04;2.37;;;2.17;;
28834;SDS011;15969;51.536;11.884;2023-05-10T14:13:30;2.70;;;2.50;;
28834;SDS011;15969;51.536;11.884;2023-05-10T14:15:56;2.60;;;2.40;;
28834;SDS011;15969;51.536;11.884;2023-05-10T14:18:22;2.60;;;2.40;;
28834;SDS011;15969;51.536;11.884;2023-05-10T14:20:47;2.83;;;2.60;;
28834;SDS011;15969;51.536;11.884;2023-05-10T14:23:13;3.80;;;3.47;;
28834;SDS011;15969;51.536;11.884;2023-05-10T14:25:40;4.70;;;2.80;;
28834;SDS011;15969;51.536;11.884;2023-05-10T14:28:06;3.70;;;3.23;;
28834;SDS011;15969;51.536;11.884;2023-05-10T14:30:31;3.40;;;3.10;;
28834;SDS011;15969;51.536;11.884;2023-05-10T14:32:59;4.20;;;3.80;;
28834;SDS011;15969;51.536;11.884;2023-05-10T14:35:26;4.20;;;3.40;;
28834;SDS011;15969;51.536;11.884;2023-05-10T14:37:52;3.80;;;3.50;;
28834;SDS011;15969;51.536;11.884;2023-05-10T14:40:18;4.63;;;3.07;;
28834;SDS011;15969;51.536;11.884;2023-05-10T14:42:44;3.30;;;3.10;;
28834;SDS011;15969;51.536;11.884;2023-05-10T14:45:10;4.00;;;3.50;;
28834;SDS011;15969;51.536;11.884;2023-05-10T14:47:36;3.60;;;3.30;;
28834;SDS011;15969;51.536;11.884;2023-05-10T14:50:02;3.63;;;3.30;;
28834;SDS011;15969;51.536;11.884;2023-05-10T14:52:28;3.47;;;2.90;;
28834;SDS011;15969;51.536;11.884;2023-05-10T14:54:54;3.70;;;3.10;;
28834;SDS011;15969;51.536;11.884;2023-05-10T14:57:20;3.83;;;3.07;;
28834;SDS011;15969;51.536;11.884;2023-05-10T14:59:45;4.13;;;3.73;;
28834;SDS011;15969;51.536;11.884;2023-05-10T15:02:11;3.40;;;3.10;;
28834;SDS011;15969;51.536;11.884;2023-05-10T15:04:38;3.50;;;3.20;;
28834;SDS011;15969;51.536;11.884;2023-05-10T15:07:03;3.43;;;3.00;;
28834;SDS011;15969;51.536;11.884;2023-05-10T15:09:29;3.23;;;2.90;;
28834;SDS011;15969;51.536;11.884;2023-05-10T15:11:55;3.20;;;2.90;;
28834;SDS011;15969;51.536;11.884;2023-05-10T15:14:21;3.30;;;3.10;;
28834;SDS011;15969;51.536;11.884;2023-05-10T15:16:47;3.20;;;2.90;;
28834;SDS011;15969;51.536;11.884;2023-05-10T15:19:13;3.30;;;3.00;;
28834;SDS011;15969;51.536;11.884;2023-05-10T15:21:39;3.00;;;2.80;;